sensor_id;sensor_type;location;lat;lon;timestamp;P1;durP1;ratioP1;P2;durP2;ratioP2
17365;SDS011;8800;50.118;9.900;2023-04-15T00:01:37;8.20;;;4.20;;
17365;SDS011;8800;50.118;9.900;2023-04-15T00:04:05;10.15;;;4.38;;
17365;SDS011;8800;50.118;9.900;2023-04-15T00:06:31;10.30;;;4.88;;
17365;SDS011;8800;50.118;9.900;2023-04-15T00:08:57;9.70;;;4.90;;
17365;SDS011;8800;50.118;9.900;2023-04-15T00:11:24;7.68;;;4.75;;
17365;SDS011;8800;50.118;9.900;2023-04-15T00:13:51;10.73;;;5.07;;
17365;SDS011;8800;50.118;9.900;2023-04-15T00:16:17;11.95;;;5.03;;
17365;SDS011;8800;50.118;9.900;2023-04-15T00:18:43;14.57;;;7.32;;
17365;SDS011;8800;50.118;9.900;2023-04-15T00:21:11;8.80;;;4.35;;
17365;SDS011;8800;50.118;9.900;2023-04-15T00:23:38;14.95;;;5.28;;
17365;SDS011;8800;50.118;9.900;2023-04-15T00:26:04;16.90;;;5.40;;
17365;SDS011;8800;50.118;9.900;2023-04-15T00:28:31;10.13;;;3.72;;
17365;SDS011;8800;50.118;9.900;2023-04-15T00:30:57;5.90;;;3.42;;
17365;SDS011;8800;50.118;9.900;2023-04-15T00:33:24;8.90;;;3.40;;
17365;SDS011;8800;50.118;9.900;2023-04-15T00:35:50;9.90;;;3.60;;
17365;SDS011;8800;50.118;9.900;2023-04-15T00:38:19;18.98;;;6.50;;
17365;SDS011;8800;50.118;9.900;2023-04-15T00:40:45;13.95;;;5.93;;
17365;SDS011;8800;50.118;9.900;2023-04-15T00:43:11;14.18;;;5.78;;
17365;SDS011;8800;50.118;9.900;2023-04-15T00:45:38;12.50;;;4.18;;
17365;SDS011;8800;50.118;9.900;2023-04-15T00:48:05;9.95;;;4.35;;
17365;SDS011;8800;50.118;9.900;2023-04-15T00:50:32;7.78;;;3.65;;
17365;SDS011;8800;50.118;9.900;2023-04-15T00:52:58;7.28;;;3.88;;
17365;SDS011;8800;50.118;9.900;2023-04-15T00:55:26;5.93;;;3.60;;
17365;SDS011;8800;50.118;9.900;2023-04-15T00:57:53;6.75;;;3.72;;
17365;SDS011;8800;50.118;9.900;2023-04-15T01:00:19;7.20;;;4.13;;
17365;SDS011;8800;50.118;9.900;2023-04-15T01:02:46;11.40;;;5.00;;
17365;SDS011;8800;50.118;9.900;2023-04-15T01:05:13;12.38;;;5.63;;
17365;SDS011;8800;50.118;9.900;2023-04-15T01:07:41;11.60;;;5.25;;
17365;SDS011;8800;50.118;9.900;2023-04-15T01:10:08;13.75;;;5.45;;
17365;SDS011;8800;50.118;9.900;2023-04-15T01:12:35;13.52;;;5.90;;
17365;SDS011;8800;50.118;9.900;2023-04-15T01:15:03;10.27;;;4.82;;
17365;SDS011;8800;50.118;9.900;2023-04-15T01:17:30;15.52;;;5.97;;
17365;SDS011;8800;50.118;9.900;2023-04-15T01:19:57;10.02;;;4.38;;
17365;SDS011;8800;50.118;9.900;2023-04-15T01:22:23;13.75;;;5.72;;
17365;SDS011;8800;50.118;9.900;2023-04-15T01:24:53;12.95;;;5.75;;
17365;SDS011;8800;50.118;9.900;2023-04-15T01:27:22;14.88;;;6.60;;
17365;SDS011;8800;50.118;9.900;2023-04-15T01:29:48;13.55;;;6.78;;
17365;SDS011;8800;50.118;9.900;2023-04-15T01:32:15;15.93;;;7.03;;
17365;SDS011;8800;50.118;9.900;2023-04-15T01:34:41;7.38;;;3.80;;
17365;SDS011;8800;50.118;9.900;2023-04-15T01:37:08;6.60;;;3.63;;
17365;SDS011;8800;50.118;9.900;2023-04-15T01:39:34;8.65;;;4.15;;
17365;SDS011;8800;50.118;9.900;2023-04-15T01:42:01;7.53;;;3.95;;
17365;SDS011;8800;50.118;9.900;2023-04-15T01:44:28;10.70;;;4.55;;
17365;SDS011;8800;50.118;9.900;2023-04-15T01:46:55;10.48;;;5.60;;
17365;SDS011;8800;50.118;9.900;2023-04-15T01:49:21;8.38;;;4.50;;
17365;SDS011;8800;50.118;9.900;2023-04-15T01:51:48;6.05;;;3.65;;
17365;SDS011;8800;50.118;9.900;2023-04-15T01:54:14;6.70;;;3.72;;
17365;SDS011;8800;50.118;9.900;2023-04-15T01:56:40;7.75;;;3.55;;
17365;SDS011;8800;50.118;9.900;2023-04-15T01:59:07;7.43;;;3.92;;
17365;SDS011;8800;50.118;9.900;2023-04-15T02:01:35;7.47;;;3.60;;
17365;SDS011;8800;50.118;9.900;2023-04-15T02:04:02;7.65;;;3.72;;
17365;SDS011;8800;50.118;9.900;2023-04-15T02:06:28;7.03;;;3.88;;
17365;SDS011;8800;50.118;9.900;2023-04-15T02:08:54;5.47;;;3.60;;
17365;SDS011;8800;50.118;9.900;2023-04-15T02:11:21;6.65;;;3.45;;
17365;SDS011;8800;50.118;9.900;2023-04-15T02:13:48;6.25;;;3.40;;
17365;SDS011;8800;50.118;9.900;2023-04-15T02:16:15;5.63;;;3.58;;
17365;SDS011;8800;50.118;9.900;2023-04-15T02:18:43;9.10;;;3.63;;
17365;SDS011;8800;50.118;9.900;2023-04-15T02:21:09;6.88;;;3.90;;
17365;SDS011;8800;50.118;9.900;2023-04-15T02:23:35;8.82;;;4.00;;
17365;SDS011;8800;50.118;9.900;2023-04-15T02:26:02;8.15;;;4.20;;
17365;SDS011;8800;50.118;9.900;2023-04-15T02:28:28;8.52;;;3.80;;
17365;SDS011;8800;50.118;9.900;2023-04-15T02:30:54;8.93;;;4.78;;
17365;SDS011;8800;50.118;9.900;2023-04-15T02:33:23;7.75;;;4.63;;
17365;SDS011;8800;50.118;9.900;2023-04-15T02:35:51;11.00;;;4.55;;
17365;SDS011;8800;50.118;9.900;2023-04-15T02:38:17;8.77;;;4.50;;
17365;SDS011;8800;50.118;9.900;2023-04-15T02:40:44;6.20;;;4.20;;
17365;SDS011;8800;50.118;9.900;2023-04-15T02:43:10;9.13;;;4.05;;
17365;SDS011;8800;50.118;9.900;2023-04-15T02:45:36;8.18;;;3.55;;
17365;SDS011;8800;50.118;9.900;2023-04-15T02:48:03;6.60;;;3.83;;
17365;SDS011;8800;50.118;9.900;2023-04-15T02:50:30;5.80;;;3.33;;
17365;SDS011;8800;50.118;9.900;2023-04-15T02:52:58;6.72;;;4.07;;
17365;SDS011;8800;50.118;9.900;2023-04-15T02:55:25;12.52;;;5.65;;
17365;SDS011;8800;50.118;9.900;2023-04-15T02:57:51;10.07;;;5.93;;
17365;SDS011;8800;50.118;9.900;2023-04-15T03:00:18;9.55;;;4.97;;
17365;SDS011;8800;50.118;9.900;2023-04-15T03:02:45;9.02;;;4.63;;
17365;SDS011;8800;50.118;9.900;2023-04-15T03:05:12;8.43;;;4.20;;
17365;SDS011;8800;50.118;9.900;2023-04-15T03:07:38;5.95;;;3.22;;
17365;SDS011;8800;50.118;9.900;2023-04-15T03:10:07;5.78;;;3.58;;
17365;SDS011;8800;50.118;9.900;2023-04-15T03:12:34;5.85;;;3.10;;
17365;SDS011;8800;50.118;9.900;2023-04-15T03:15:00;6.95;;;3.70;;
17365;SDS011;8800;50.118;9.900;2023-04-15T03:17:27;6.88;;;3.78;;
17365;SDS011;8800;50.118;9.900;2023-04-15T03:19:54;9.75;;;4.40;;
17365;SDS011;8800;50.118;9.900;2023-04-15T03:22:20;7.95;;;4.88;;
17365;SDS011;8800;50.118;9.900;2023-04-15T03:24:47;10.25;;;4.78;;
17365;SDS011;8800;50.118;9.900;2023-04-15T03:27:14;9.73;;;4.05;;
17365;SDS011;8800;50.118;9.900;2023-04-15T03:29:41;9.73;;;4.47;;
17365;SDS011;8800;50.118;9.900;2023-04-15T03:32:07;10.10;;;4.57;;
17365;SDS011;8800;50.118;9.900;2023-04-15T03:34:34;7.70;;;4.43;;
17365;SDS011;8800;50.118;9.900;2023-04-15T03:37:00;8.63;;;3.95;;
17365;SDS011;8800;50.118;9.900;2023-04-15T03:39:27;6.55;;;3.70;;
17365;SDS011;8800;50.118;9.900;2023-04-15T03:41:53;8.20;;;4.05;;
17365;SDS011;8800;50.118;9.900;2023-04-15T03:44:21;7.95;;;3.90;;
17365;SDS011;8800;50.118;9.900;2023-04-15T03:46:48;10.90;;;5.03;;
17365;SDS011;8800;50.118;9.900;2023-04-15T03:49:14;15.68;;;5.47;;
17365;SDS011;8800;50.118;9.900;2023-04-15T03:51:41;13.43;;;5.18;;
17365;SDS011;8800;50.118;9.900;2023-04-15T03:54:08;12.45;;;5.93;;
17365;SDS011;8800;50.118;9.900;2023-04-15T03:56:34;12.90;;;5.20;;
17365;SDS011;8800;50.118;9.900;2023-04-15T03:59:01;9.43;;;4.80;;
17365;SDS011;8800;50.118;9.900;2023-04-15T04:01:29;6.43;;;3.97;;
17365;SDS011;8800;50.118;9.900;2023-04-15T04:03:55;6.97;;;3.72;;
17365;SDS011;8800;50.118;9.900;2023-04-15T04:06:22;7.68;;;3.75;;
17365;SDS011;8800;50.118;9.900;2023-04-15T04:08:49;6.47;;;4.13;;
17365;SDS011;8800;50.118;9.900;2023-04-15T04:11:15;7.35;;;3.97;;
17365;SDS011;8800;50.118;9.900;2023-04-15T04:13:42;14.93;;;5.95;;
17365;SDS011;8800;50.118;9.900;2023-04-15T04:16:08;16.80;;;7.47;;
17365;SDS011;8800;50.118;9.900;2023-04-15T04:18:36;12.32;;;5.57;;
17365;SDS011;8800;50.118;9.900;2023-04-15T04:21:02;12.70;;;6.10;;
17365;SDS011;8800;50.118;9.900;2023-04-15T04:23:29;12.50;;;5.93;;
17365;SDS011;8800;50.118;9.900;2023-04-15T04:25:56;12.68;;;6.32;;
17365;SDS011;8800;50.118;9.900;2023-04-15T04:28:22;10.90;;;5.60;;
17365;SDS011;8800;50.118;9.900;2023-04-15T04:30:49;9.38;;;4.97;;
17365;SDS011;8800;50.118;9.900;2023-04-15T04:33:15;7.85;;;3.95;;
17365;SDS011;8800;50.118;9.900;2023-04-15T04:35:43;6.93;;;3.67;;
17365;SDS011;8800;50.118;9.900;2023-04-15T04:38:10;6.20;;;3.45;;
17365;SDS011;8800;50.118;9.900;2023-04-15T04:40:36;7.72;;;3.33;;
17365;SDS011;8800;50.118;9.900;2023-04-15T04:43:03;8.82;;;3.30;;
17365;SDS011;8800;50.118;9.900;2023-04-15T04:45:29;5.97;;;3.15;;
17365;SDS011;8800;50.118;9.900;2023-04-15T04:47:56;5.82;;;3.20;;
17365;SDS011;8800;50.118;9.900;2023-04-15T04:50:22;5.45;;;3.00;;
17365;SDS011;8800;50.118;9.900;2023-04-15T04:52:50;4.97;;;2.83;;
17365;SDS011;8800;50.118;9.900;2023-04-15T04:55:16;4.15;;;2.85;;
17365;SDS011;8800;50.118;9.900;2023-04-15T04:57:43;6.15;;;3.25;;
17365;SDS011;8800;50.118;9.900;2023-04-15T05:00:10;5.97;;;3.75;;
17365;SDS011;8800;50.118;9.900;2023-04-15T05:02:37;7.95;;;3.75;;
17365;SDS011;8800;50.118;9.900;2023-04-15T05:05:03;6.55;;;3.50;;
17365;SDS011;8800;50.118;9.900;2023-04-15T05:07:30;5.90;;;3.40;;
17365;SDS011;8800;50.118;9.900;2023-04-15T05:09:58;5.20;;;3.15;;
17365;SDS011;8800;50.118;9.900;2023-04-15T05:12:25;5.00;;;3.13;;
17365;SDS011;8800;50.118;9.900;2023-04-15T05:14:51;5.90;;;2.90;;
17365;SDS011;8800;50.118;9.900;2023-04-15T05:17:17;6.50;;;3.17;;
17365;SDS011;8800;50.118;9.900;2023-04-15T05:19:44;6.60;;;3.80;;
17365;SDS011;8800;50.118;9.900;2023-04-15T05:22:10;5.28;;;3.38;;
17365;SDS011;8800;50.118;9.900;2023-04-15T05:24:37;7.65;;;4.05;;
17365;SDS011;8800;50.118;9.900;2023-04-15T05:27:05;6.78;;;3.60;;
17365;SDS011;8800;50.118;9.900;2023-04-15T05:29:32;6.20;;;3.30;;
17365;SDS011;8800;50.118;9.900;2023-04-15T05:31:59;4.50;;;3.20;;
17365;SDS011;8800;50.118;9.900;2023-04-15T05:34:25;5.85;;;2.80;;
17365;SDS011;8800;50.118;9.900;2023-04-15T05:36:52;7.72;;;3.30;;
17365;SDS011;8800;50.118;9.900;2023-04-15T05:39:18;7.78;;;3.58;;
17365;SDS011;8800;50.118;9.900;2023-04-15T05:41:45;5.43;;;3.30;;
17365;SDS011;8800;50.118;9.900;2023-04-15T05:44:12;7.93;;;3.05;;
17365;SDS011;8800;50.118;9.900;2023-04-15T05:46:39;5.75;;;3.75;;
17365;SDS011;8800;50.118;9.900;2023-04-15T05:49:05;5.90;;;3.15;;
17365;SDS011;8800;50.118;9.900;2023-04-15T05:51:32;5.35;;;3.20;;
17365;SDS011;8800;50.118;9.900;2023-04-15T05:53:58;6.78;;;3.80;;
17365;SDS011;8800;50.118;9.900;2023-04-15T05:56:25;6.60;;;3.60;;
17365;SDS011;8800;50.118;9.900;2023-04-15T05:58:51;6.20;;;4.00;;
17365;SDS011;8800;50.118;9.900;2023-04-15T06:01:19;4.40;;;3.15;;
17365;SDS011;8800;50.118;9.900;2023-04-15T06:03:46;7.03;;;3.70;;
17365;SDS011;8800;50.118;9.900;2023-04-15T06:06:12;6.70;;;3.70;;
17365;SDS011;8800;50.118;9.900;2023-04-15T06:08:39;10.45;;;4.50;;
17365;SDS011;8800;50.118;9.900;2023-04-15T06:11:06;5.72;;;3.45;;
17365;SDS011;8800;50.118;9.900;2023-04-15T06:13:32;8.02;;;4.15;;
17365;SDS011;8800;50.118;9.900;2023-04-15T06:15:59;7.05;;;3.92;;
17365;SDS011;8800;50.118;9.900;2023-04-15T06:18:27;7.78;;;4.90;;
17365;SDS011;8800;50.118;9.900;2023-04-15T06:20:54;10.63;;;4.60;;
17365;SDS011;8800;50.118;9.900;2023-04-15T06:23:21;8.82;;;4.85;;
17365;SDS011;8800;50.118;9.900;2023-04-15T06:25:47;9.65;;;4.60;;
17365;SDS011;8800;50.118;9.900;2023-04-15T06:28:14;8.02;;;4.47;;
17365;SDS011;8800;50.118;9.900;2023-04-15T06:30:40;8.00;;;4.82;;
17365;SDS011;8800;50.118;9.900;2023-04-15T06:33:07;9.43;;;5.30;;
17365;SDS011;8800;50.118;9.900;2023-04-15T06:35:36;10.63;;;6.07;;
17365;SDS011;8800;50.118;9.900;2023-04-15T06:38:03;11.57;;;5.40;;
17365;SDS011;8800;50.118;9.900;2023-04-15T06:40:32;8.55;;;5.45;;
17365;SDS011;8800;50.118;9.900;2023-04-15T06:42:58;9.93;;;5.68;;
17365;SDS011;8800;50.118;9.900;2023-04-15T06:45:25;9.88;;;5.97;;
17365;SDS011;8800;50.118;9.900;2023-04-15T06:47:51;11.80;;;6.18;;
17365;SDS011;8800;50.118;9.900;2023-04-15T06:50:18;8.23;;;5.25;;
17365;SDS011;8800;50.118;9.900;2023-04-15T06:52:46;8.57;;;5.35;;
17365;SDS011;8800;50.118;9.900;2023-04-15T06:55:12;9.75;;;6.03;;
17365;SDS011;8800;50.118;9.900;2023-04-15T06:57:38;12.45;;;6.00;;
17365;SDS011;8800;50.118;9.900;2023-04-15T07:00:05;9.45;;;5.43;;
17365;SDS011;8800;50.118;9.900;2023-04-15T07:02:32;14.32;;;6.15;;
17365;SDS011;8800;50.118;9.900;2023-04-15T07:04:59;9.98;;;5.00;;
17365;SDS011;8800;50.118;9.900;2023-04-15T07:07:25;10.32;;;5.60;;
17365;SDS011;8800;50.118;9.900;2023-04-15T07:09:53;9.10;;;5.57;;
17365;SDS011;8800;50.118;9.900;2023-04-15T07:12:19;9.43;;;5.57;;
17365;SDS011;8800;50.118;9.900;2023-04-15T07:14:46;13.05;;;5.78;;
17365;SDS011;8800;50.118;9.900;2023-04-15T07:17:13;10.60;;;5.75;;
17365;SDS011;8800;50.118;9.900;2023-04-15T07:19:39;10.80;;;5.65;;
17365;SDS011;8800;50.118;9.900;2023-04-15T07:22:06;10.80;;;5.45;;
17365;SDS011;8800;50.118;9.900;2023-04-15T07:24:33;13.23;;;6.75;;
17365;SDS011;8800;50.118;9.900;2023-04-15T07:27:00;15.95;;;7.75;;
17365;SDS011;8800;50.118;9.900;2023-04-15T07:29:28;12.77;;;6.68;;
17365;SDS011;8800;50.118;9.900;2023-04-15T07:31:54;10.60;;;5.93;;
17365;SDS011;8800;50.118;9.900;2023-04-15T07:34:21;10.60;;;6.43;;
17365;SDS011;8800;50.118;9.900;2023-04-15T07:36:47;11.07;;;6.35;;
17365;SDS011;8800;50.118;9.900;2023-04-15T07:39:14;10.48;;;6.45;;
17365;SDS011;8800;50.118;9.900;2023-04-15T07:41:41;11.13;;;6.38;;
17365;SDS011;8800;50.118;9.900;2023-04-15T07:44:08;10.23;;;5.72;;
17365;SDS011;8800;50.118;9.900;2023-04-15T07:46:35;11.52;;;7.20;;
17365;SDS011;8800;50.118;9.900;2023-04-15T07:49:02;12.10;;;6.55;;
17365;SDS011;8800;50.118;9.900;2023-04-15T07:51:28;14.80;;;6.60;;
17365;SDS011;8800;50.118;9.900;2023-04-15T07:53:55;10.27;;;6.38;;
17365;SDS011;8800;50.118;9.900;2023-04-15T07:56:21;12.63;;;6.55;;
17365;SDS011;8800;50.118;9.900;2023-04-15T07:58:47;11.02;;;6.60;;
17365;SDS011;8800;50.118;9.900;2023-04-15T08:01:15;13.05;;;6.45;;
17365;SDS011;8800;50.118;9.900;2023-04-15T08:03:42;11.10;;;6.93;;
17365;SDS011;8800;50.118;9.900;2023-04-15T08:06:08;10.75;;;6.28;;
17365;SDS011;8800;50.118;9.900;2023-04-15T08:08:34;10.60;;;6.22;;
17365;SDS011;8800;50.118;9.900;2023-04-15T08:11:01;10.93;;;6.25;;
17365;SDS011;8800;50.118;9.900;2023-04-15T08:13:27;10.65;;;6.75;;
17365;SDS011;8800;50.118;9.900;2023-04-15T08:18:37;10.50;;;6.15;;
17365;SDS011;8800;50.118;9.900;2023-04-15T08:21:03;10.32;;;6.22;;
17365;SDS011;8800;50.118;9.900;2023-04-15T08:23:30;11.18;;;6.60;;
17365;SDS011;8800;50.118;9.900;2023-04-15T08:25:57;10.60;;;5.63;;
17365;SDS011;8800;50.118;9.900;2023-04-15T08:28:24;10.20;;;5.97;;
17365;SDS011;8800;50.118;9.900;2023-04-15T08:30:51;10.15;;;5.50;;
17365;SDS011;8800;50.118;9.900;2023-04-15T08:33:18;12.05;;;6.20;;
17365;SDS011;8800;50.118;9.900;2023-04-15T08:35:47;10.02;;;6.15;;
17365;SDS011;8800;50.118;9.900;2023-04-15T08:38:13;8.10;;;5.75;;
17365;SDS011;8800;50.118;9.900;2023-04-15T08:40:41;8.52;;;5.60;;
17365;SDS011;8800;50.118;9.900;2023-04-15T08:43:08;10.23;;;5.95;;
17365;SDS011;8800;50.118;9.900;2023-04-15T08:45:36;11.80;;;6.07;;
17365;SDS011;8800;50.118;9.900;2023-04-15T08:48:04;10.48;;;6.00;;
17365;SDS011;8800;50.118;9.900;2023-04-15T08:50:31;10.20;;;6.40;;
17365;SDS011;8800;50.118;9.900;2023-04-15T08:52:59;10.48;;;6.53;;
17365;SDS011;8800;50.118;9.900;2023-04-15T08:55:27;8.65;;;5.68;;
17365;SDS011;8800;50.118;9.900;2023-04-15T08:57:55;11.20;;;6.32;;
17365;SDS011;8800;50.118;9.900;2023-04-15T09:00:22;12.02;;;6.75;;
17365;SDS011;8800;50.118;9.900;2023-04-15T09:02:49;9.52;;;6.10;;
17365;SDS011;8800;50.118;9.900;2023-04-15T09:05:16;10.98;;;6.55;;
17365;SDS011;8800;50.118;9.900;2023-04-15T09:07:45;8.80;;;6.00;;
17365;SDS011;8800;50.118;9.900;2023-04-15T09:10:13;11.13;;;6.93;;
17365;SDS011;8800;50.118;9.900;2023-04-15T09:12:40;11.35;;;6.43;;
17365;SDS011;8800;50.118;9.900;2023-04-15T09:15:07;12.18;;;6.75;;
17365;SDS011;8800;50.118;9.900;2023-04-15T09:17:36;12.65;;;7.60;;
17365;SDS011;8800;50.118;9.900;2023-04-15T09:20:07;11.70;;;7.30;;
17365;SDS011;8800;50.118;9.900;2023-04-15T09:22:34;13.00;;;7.50;;
17365;SDS011;8800;50.118;9.900;2023-04-15T09:25:01;12.32;;;6.90;;
17365;SDS011;8800;50.118;9.900;2023-04-15T09:27:30;10.25;;;6.95;;
17365;SDS011;8800;50.118;9.900;2023-04-15T09:29:56;9.95;;;5.68;;
17365;SDS011;8800;50.118;9.900;2023-04-15T09:32:23;7.95;;;5.35;;
17365;SDS011;8800;50.118;9.900;2023-04-15T09:34:49;7.47;;;4.78;;
17365;SDS011;8800;50.118;9.900;2023-04-15T09:37:16;9.02;;;5.18;;
17365;SDS011;8800;50.118;9.900;2023-04-15T09:39:45;9.05;;;4.85;;
17365;SDS011;8800;50.118;9.900;2023-04-15T09:42:12;7.28;;;4.63;;
17365;SDS011;8800;50.118;9.900;2023-04-15T09:44:40;5.60;;;3.28;;
17365;SDS011;8800;50.118;9.900;2023-04-15T09:47:06;6.80;;;3.58;;
17365;SDS011;8800;50.118;9.900;2023-04-15T09:49:33;6.78;;;4.05;;
17365;SDS011;8800;50.118;9.900;2023-04-15T09:51:59;5.72;;;3.70;;
17365;SDS011;8800;50.118;9.900;2023-04-15T09:54:32;5.50;;;3.47;;
17365;SDS011;8800;50.118;9.900;2023-04-15T09:57:03;7.80;;;3.53;;
17365;SDS011;8800;50.118;9.900;2023-04-15T09:59:30;6.38;;;3.58;;
17365;SDS011;8800;50.118;9.900;2023-04-15T10:01:57;5.55;;;3.50;;
17365;SDS011;8800;50.118;9.900;2023-04-15T10:04:24;5.32;;;3.90;;
17365;SDS011;8800;50.118;9.900;2023-04-15T10:06:52;6.82;;;3.72;;
17365;SDS011;8800;50.118;9.900;2023-04-15T10:09:18;5.47;;;3.45;;
17365;SDS011;8800;50.118;9.900;2023-04-15T10:11:45;6.45;;;3.92;;
17365;SDS011;8800;50.118;9.900;2023-04-15T10:14:13;7.47;;;3.78;;
17365;SDS011;8800;50.118;9.900;2023-04-15T10:16:41;6.55;;;3.95;;
17365;SDS011;8800;50.118;9.900;2023-04-15T10:19:11;8.63;;;4.45;;
17365;SDS011;8800;50.118;9.900;2023-04-15T10:21:37;6.43;;;4.20;;
17365;SDS011;8800;50.118;9.900;2023-04-15T10:24:04;7.65;;;4.45;;
17365;SDS011;8800;50.118;9.900;2023-04-15T10:26:31;7.47;;;4.32;;
17365;SDS011;8800;50.118;9.900;2023-04-15T10:28:57;7.43;;;4.53;;
17365;SDS011;8800;50.118;9.900;2023-04-15T10:31:25;6.70;;;4.03;;
17365;SDS011;8800;50.118;9.900;2023-04-15T10:33:51;7.22;;;4.28;;
17365;SDS011;8800;50.118;9.900;2023-04-15T10:36:19;4.53;;;3.40;;
17365;SDS011;8800;50.118;9.900;2023-04-15T10:38:46;6.55;;;3.53;;
17365;SDS011;8800;50.118;9.900;2023-04-15T10:41:13;4.63;;;2.80;;
17365;SDS011;8800;50.118;9.900;2023-04-15T10:43:44;6.70;;;2.97;;
17365;SDS011;8800;50.118;9.900;2023-04-15T10:46:11;3.60;;;2.45;;
17365;SDS011;8800;50.118;9.900;2023-04-15T10:48:37;4.40;;;2.65;;
17365;SDS011;8800;50.118;9.900;2023-04-15T10:51:03;3.97;;;2.45;;
17365;SDS011;8800;50.118;9.900;2023-04-15T10:53:31;4.40;;;2.83;;
17365;SDS011;8800;50.118;9.900;2023-04-15T10:55:58;3.42;;;2.08;;
17365;SDS011;8800;50.118;9.900;2023-04-15T10:58:24;2.95;;;2.20;;
17365;SDS011;8800;50.118;9.900;2023-04-15T11:00:52;3.00;;;2.00;;
17365;SDS011;8800;50.118;9.900;2023-04-15T11:03:22;4.28;;;2.10;;
17365;SDS011;8800;50.118;9.900;2023-04-15T11:05:59;3.53;;;2.28;;
17365;SDS011;8800;50.118;9.900;2023-04-15T11:11:08;4.75;;;2.58;;
17365;SDS011;8800;50.118;9.900;2023-04-15T11:13:34;4.25;;;2.88;;
17365;SDS011;8800;50.118;9.900;2023-04-15T11:16:01;3.10;;;2.50;;
17365;SDS011;8800;50.118;9.900;2023-04-15T11:18:29;4.18;;;2.58;;
17365;SDS011;8800;50.118;9.900;2023-04-15T11:20:56;3.92;;;2.65;;
17365;SDS011;8800;50.118;9.900;2023-04-15T11:23:27;4.18;;;2.58;;
17365;SDS011;8800;50.118;9.900;2023-04-15T11:25:53;5.13;;;2.08;;
17365;SDS011;8800;50.118;9.900;2023-04-15T11:28:23;4.65;;;2.67;;
17365;SDS011;8800;50.118;9.900;2023-04-15T11:30:50;4.28;;;2.50;;
17365;SDS011;8800;50.118;9.900;2023-04-15T11:33:18;4.20;;;2.50;;
17365;SDS011;8800;50.118;9.900;2023-04-15T11:35:44;3.45;;;2.15;;
17365;SDS011;8800;50.118;9.900;2023-04-15T11:38:11;5.32;;;2.92;;
17365;SDS011;8800;50.118;9.900;2023-04-15T11:40:38;4.40;;;2.67;;
17365;SDS011;8800;50.118;9.900;2023-04-15T11:43:05;3.72;;;2.40;;
17365;SDS011;8800;50.118;9.900;2023-04-15T11:45:33;4.90;;;3.15;;
17365;SDS011;8800;50.118;9.900;2023-04-15T11:48:09;5.28;;;3.47;;
17365;SDS011;8800;50.118;9.900;2023-04-15T11:50:36;5.13;;;3.10;;
17365;SDS011;8800;50.118;9.900;2023-04-15T11:53:05;4.32;;;2.80;;
17365;SDS011;8800;50.118;9.900;2023-04-15T11:55:40;3.00;;;2.08;;
17365;SDS011;8800;50.118;9.900;2023-04-15T11:58:07;4.85;;;2.20;;
17365;SDS011;8800;50.118;9.900;2023-04-15T12:00:35;4.10;;;2.40;;
17365;SDS011;8800;50.118;9.900;2023-04-15T12:03:12;3.15;;;2.00;;
17365;SDS011;8800;50.118;9.900;2023-04-15T12:08:19;2.40;;;1.80;;
17365;SDS011;8800;50.118;9.900;2023-04-15T12:10:46;2.85;;;1.90;;
17365;SDS011;8800;50.118;9.900;2023-04-15T12:13:12;5.00;;;3.20;;
17365;SDS011;8800;50.118;9.900;2023-04-15T12:15:41;3.70;;;2.42;;
17365;SDS011;8800;50.118;9.900;2023-04-15T12:18:15;2.58;;;1.73;;
17365;SDS011;8800;50.118;9.900;2023-04-15T12:20:42;4.05;;;2.20;;
17365;SDS011;8800;50.118;9.900;2023-04-15T12:23:09;3.13;;;2.33;;
17365;SDS011;8800;50.118;9.900;2023-04-15T12:25:35;5.57;;;2.85;;
17365;SDS011;8800;50.118;9.900;2023-04-15T12:28:09;5.80;;;3.38;;
17365;SDS011;8800;50.118;9.900;2023-04-15T12:30:35;6.55;;;4.10;;
17365;SDS011;8800;50.118;9.900;2023-04-15T12:33:03;5.20;;;3.35;;
17365;SDS011;8800;50.118;9.900;2023-04-15T12:35:30;6.45;;;3.75;;
17365;SDS011;8800;50.118;9.900;2023-04-15T12:37:56;7.68;;;4.97;;
17365;SDS011;8800;50.118;9.900;2023-04-15T12:40:23;7.72;;;4.82;;
17365;SDS011;8800;50.118;9.900;2023-04-15T12:42:49;8.50;;;5.22;;
17365;SDS011;8800;50.118;9.900;2023-04-15T12:45:16;8.98;;;5.65;;
17365;SDS011;8800;50.118;9.900;2023-04-15T12:47:42;9.70;;;5.18;;
17365;SDS011;8800;50.118;9.900;2023-04-15T12:50:10;6.25;;;4.18;;
17365;SDS011;8800;50.118;9.900;2023-04-15T12:52:36;6.43;;;4.40;;
17365;SDS011;8800;50.118;9.900;2023-04-15T12:55:03;6.35;;;3.55;;
17365;SDS011;8800;50.118;9.900;2023-04-15T12:57:29;6.57;;;4.18;;
17365;SDS011;8800;50.118;9.900;2023-04-15T12:59:56;6.85;;;4.10;;
17365;SDS011;8800;50.118;9.900;2023-04-15T13:02:22;5.13;;;3.30;;
17365;SDS011;8800;50.118;9.900;2023-04-15T13:04:49;7.45;;;4.20;;
17365;SDS011;8800;50.118;9.900;2023-04-15T13:07:17;5.10;;;3.35;;
17365;SDS011;8800;50.118;9.900;2023-04-15T13:09:44;4.93;;;3.20;;
17365;SDS011;8800;50.118;9.900;2023-04-15T13:12:10;5.30;;;2.60;;
17365;SDS011;8800;50.118;9.900;2023-04-15T13:14:37;3.17;;;2.08;;
17365;SDS011;8800;50.118;9.900;2023-04-15T13:17:04;7.15;;;3.40;;
17365;SDS011;8800;50.118;9.900;2023-04-15T13:19:34;4.03;;;2.45;;
17365;SDS011;8800;50.118;9.900;2023-04-15T13:22:01;7.05;;;3.25;;
17365;SDS011;8800;50.118;9.900;2023-04-15T13:24:28;1.83;;;1.52;;
17365;SDS011;8800;50.118;9.900;2023-04-15T13:26:55;5.47;;;3.40;;
17365;SDS011;8800;50.118;9.900;2023-04-15T13:29:23;6.22;;;3.92;;
17365;SDS011;8800;50.118;9.900;2023-04-15T13:31:49;3.42;;;2.10;;
17365;SDS011;8800;50.118;9.900;2023-04-15T13:34:16;2.13;;;1.30;;
17365;SDS011;8800;50.118;9.900;2023-04-15T13:36:42;1.83;;;1.38;;
17365;SDS011;8800;50.118;9.900;2023-04-15T13:39:08;4.50;;;2.72;;
17365;SDS011;8800;50.118;9.900;2023-04-15T13:41:36;3.63;;;1.80;;
17365;SDS011;8800;50.118;9.900;2023-04-15T13:44:03;2.03;;;1.50;;
17365;SDS011;8800;50.118;9.900;2023-04-15T13:46:30;1.90;;;1.15;;
17365;SDS011;8800;50.118;9.900;2023-04-15T13:48:56;2.10;;;1.20;;
17365;SDS011;8800;50.118;9.900;2023-04-15T13:51:22;2.97;;;1.98;;
17365;SDS011;8800;50.118;9.900;2023-04-15T13:53:49;2.20;;;0.93;;
17365;SDS011;8800;50.118;9.900;2023-04-15T13:56:16;2.05;;;1.10;;
17365;SDS011;8800;50.118;9.900;2023-04-15T13:58:44;3.60;;;2.58;;
17365;SDS011;8800;50.118;9.900;2023-04-15T14:01:11;1.27;;;0.95;;
17365;SDS011;8800;50.118;9.900;2023-04-15T14:03:37;1.85;;;1.10;;
17365;SDS011;8800;50.118;9.900;2023-04-15T14:06:03;1.23;;;0.70;;
17365;SDS011;8800;50.118;9.900;2023-04-15T14:08:30;1.27;;;0.88;;
17365;SDS011;8800;50.118;9.900;2023-04-15T14:10:56;1.30;;;1.08;;
17365;SDS011;8800;50.118;9.900;2023-04-15T14:13:23;1.52;;;1.00;;
17365;SDS011;8800;50.118;9.900;2023-04-15T14:15:51;1.27;;;0.70;;
17365;SDS011;8800;50.118;9.900;2023-04-15T14:18:17;1.85;;;0.88;;
17365;SDS011;8800;50.118;9.900;2023-04-15T14:20:43;1.13;;;0.70;;
17365;SDS011;8800;50.118;9.900;2023-04-15T14:23:10;1.00;;;0.90;;
17365;SDS011;8800;50.118;9.900;2023-04-15T14:25:36;4.47;;;2.60;;
17365;SDS011;8800;50.118;9.900;2023-04-15T14:28:03;4.95;;;3.28;;
17365;SDS011;8800;50.118;9.900;2023-04-15T14:30:30;10.00;;;5.20;;
17365;SDS011;8800;50.118;9.900;2023-04-15T14:32:57;5.60;;;3.00;;
17365;SDS011;8800;50.118;9.900;2023-04-15T14:35:24;7.18;;;3.58;;
17365;SDS011;8800;50.118;9.900;2023-04-15T14:37:51;2.75;;;1.60;;
17365;SDS011;8800;50.118;9.900;2023-04-15T14:40:18;12.38;;;5.47;;
17365;SDS011;8800;50.118;9.900;2023-04-15T14:42:44;5.35;;;2.53;;
17365;SDS011;8800;50.118;9.900;2023-04-15T14:45:11;15.73;;;6.88;;
17365;SDS011;8800;50.118;9.900;2023-04-15T14:47:37;8.05;;;3.90;;
17365;SDS011;8800;50.118;9.900;2023-04-15T14:50:06;4.72;;;2.30;;
17365;SDS011;8800;50.118;9.900;2023-04-15T14:52:32;5.38;;;3.55;;
17365;SDS011;8800;50.118;9.900;2023-04-15T14:55:03;6.53;;;4.03;;
17365;SDS011;8800;50.118;9.900;2023-04-15T14:57:29;4.75;;;3.53;;
17365;SDS011;8800;50.118;9.900;2023-04-15T14:59:55;5.28;;;3.50;;
17365;SDS011;8800;50.118;9.900;2023-04-15T15:02:23;4.70;;;2.83;;
17365;SDS011;8800;50.118;9.900;2023-04-15T15:04:49;7.30;;;4.20;;